Rechercher aéroport 
image banner adimage banner adimage banner ad
image banner ad

KFIG - Clearfield-Lawrence

Situé à Clearfield, United States

ICAO - FIG, IATA -

Données fournies par Airmate  

Information générale

Coordonnées: N41°2'57" W78°24'55"
Élévation : 1516 feet MSL.
Variation magnétique : -10° East
Voir autres Aéroports à Pennsylvania

Données opérationnelles

Special qualification required
Heure actuelle UTC:
Heure actuelle locale:
Météo
METAR: KFIG 132054Z AUTO 23004KT 10SM CLR 28/17 A2983 RMK AO2 LTG DSNT N SLP091 T02830167 58017
Voir NOTAMs / SUP AIP / TFR affectant cet aéroport [VIEW]
Fréquences de communication: [VIEW]

Pistes:

Identifiant RWYQFULongueur (ft)Largeur (ft)SurfaceLDA (ft)
12109°449975ASPH
30289°449975ASPH

Coordonnées de l'aéroport

Adresse: Clearfield United States

Autres services d'aviation

Écoles de pilotage

Shortway Pilots, Inc.

Shortway Pilots, Inc.

Wings Of Clearfield, Inc.

Wings Of Clearfield, Inc.
jpmnem@atlanticbb.net+1(814)236-0710

Vue satellite de KFIG